createdAt,value
2022-10-24T00:03:18.538Z,100495.09
2022-10-24T00:08:24.253Z,100495.70
2022-10-24T00:13:30.244Z,100490.91
2022-10-24T00:18:36.371Z,100498.64
2022-10-24T00:23:41.954Z,100500.80
2022-10-24T00:28:48.112Z,100496.12
2022-10-24T00:33:53.591Z,100487.17
2022-10-24T00:38:59.039Z,100476.98
2022-10-24T00:44:24.384Z,100481.76
2022-10-24T00:49:35.522Z,100482.62
2022-10-24T00:54:42.515Z,100479.92
2022-10-24T00:59:50.882Z,100469.48
2022-10-24T01:04:56.620Z,100473.30
2022-10-24T01:10:08.137Z,100468.90
2022-10-24T01:15:25.496Z,100467.91
2022-10-24T01:20:43.079Z,100452.21
2022-10-24T01:25:57.738Z,100456.00
2022-10-24T01:31:09.038Z,100451.36
2022-10-24T01:36:17.455Z,100444.22
2022-10-24T01:41:26.277Z,100438.95
2022-10-24T01:46:34.773Z,100441.52
2022-10-24T01:51:42.700Z,100436.75
2022-10-24T01:56:48.406Z,100434.55
2022-10-24T02:01:56.494Z,100428.52
2022-10-24T02:07:07.758Z,100424.73
2022-10-24T02:12:15.989Z,100415.28
2022-10-24T02:17:21.641Z,100422.27
2022-10-24T02:22:32.854Z,100414.66
2022-10-24T02:27:44.690Z,100418.70
2022-10-24T02:32:56.282Z,100427.06
2022-10-24T02:38:07.295Z,100449.27
2022-10-24T02:43:14.698Z,100456.15
2022-10-24T02:48:23.142Z,100456.69
2022-10-24T02:53:29.225Z,100453.91
2022-10-24T02:58:34.816Z,100435.64
2022-10-24T03:03:40.274Z,100427.68
2022-10-24T03:08:45.720Z,100427.80
2022-10-24T03:13:51.717Z,100449.31
2022-10-24T03:18:57.516Z,100438.67
2022-10-24T03:24:03.145Z,100439.52
2022-10-24T03:29:08.779Z,100445.77
2022-10-24T03:34:14.398Z,100441.00
2022-10-24T03:39:19.773Z,100439.54
2022-10-24T03:44:25.355Z,100438.36
2022-10-24T03:49:32.485Z,100435.30
2022-10-24T03:54:38.968Z,100430.03
2022-10-24T03:59:44.555Z,100417.28
2022-10-24T04:04:50.096Z,100405.16
2022-10-24T04:09:55.804Z,100398.92
2022-10-24T04:15:04.120Z,100401.99
2022-10-24T04:20:09.511Z,100410.49
2022-10-24T04:25:15.128Z,100409.39
2022-10-24T04:30:20.830Z,100421.29
2022-10-24T04:35:26.442Z,100425.70
2022-10-24T04:40:31.896Z,100432.33
2022-10-24T04:45:37.343Z,100427.42
2022-10-24T04:50:44.377Z,100413.33
2022-10-24T04:55:50.501Z,100416.44
2022-10-24T05:00:56.110Z,100407.00
2022-10-24T05:06:01.645Z,100420.81
2022-10-24T05:11:07.168Z,100424.64
2022-10-24T05:16:12.793Z,100416.81
2022-10-24T05:21:18.822Z,100427.22
2022-10-24T05:26:27.101Z,100429.18
2022-10-24T05:31:34.257Z,100425.75
2022-10-24T05:36:39.791Z,100426.98
2022-10-24T05:41:47.130Z,100420.61
2022-10-24T05:46:53.107Z,100427.55
2022-10-24T05:51:58.631Z,100415.42
2022-10-24T05:57:04.178Z,100432.33
2022-10-24T06:02:11.202Z,100438.94
2022-10-24T06:07:16.868Z,100435.86
2022-10-24T06:12:22.315Z,100441.50
2022-10-24T06:17:28.149Z,100430.23
2022-10-24T06:22:33.833Z,100429.86
2022-10-24T06:27:39.783Z,100436.59
2022-10-24T06:32:45.681Z,100439.16
2022-10-24T06:37:51.963Z,100445.74
2022-10-24T06:42:58.764Z,100452.36
2022-10-24T06:48:04.330Z,100447.08
2022-10-24T06:53:11.376Z,100448.78
2022-10-24T06:58:16.938Z,100454.30
2022-10-24T07:03:22.489Z,100461.05
2022-10-24T07:08:28.060Z,100452.58
2022-10-24T07:13:33.572Z,100454.13
2022-10-24T07:18:39.412Z,100447.99
2022-10-24T07:23:46.000Z,100433.29
2022-10-24T07:28:54.906Z,100437.13
2022-10-24T07:34:02.482Z,100414.52
2022-10-24T07:39:08.419Z,100422.36
2022-10-24T07:44:13.952Z,100429.45
2022-10-24T07:49:19.337Z,100428.88
2022-10-24T07:54:26.478Z,100425.43
2022-10-24T07:59:41.679Z,100427.94
2022-10-24T08:04:39.099Z,100426.20
2022-10-24T08:09:47.188Z,100441.03
2022-10-24T08:14:53.569Z,100430.92
2022-10-24T08:19:59.090Z,100425.70
2022-10-24T08:25:06.590Z,100452.38
2022-10-24T08:30:12.663Z,100449.17
2022-10-24T08:35:22.065Z,100443.84
2022-10-24T08:40:27.672Z,100453.66
2022-10-24T08:46:00.370Z,100441.94
2022-10-24T08:51:23.957Z,100437.94
2022-10-24T08:56:32.381Z,100433.64
2022-10-24T09:01:43.591Z,100428.42
2022-10-24T09:06:51.072Z,100418.70
2022-10-24T09:11:59.589Z,100409.77
2022-10-24T09:17:26.639Z,100417.94
2022-10-24T09:22:35.076Z,100415.52
2022-10-24T09:27:42.101Z,100429.75
2022-10-24T09:32:48.127Z,100424.64
2022-10-24T09:37:58.857Z,100427.34
2022-10-24T09:43:09.991Z,100430.78
2022-10-24T09:48:35.563Z,100436.89
2022-10-24T09:53:44.170Z,100438.94
2022-10-24T09:58:49.706Z,100438.16
2022-10-24T10:04:09.983Z,100426.33
2022-10-24T10:09:16.720Z,100419.70
2022-10-24T10:14:26.913Z,100419.72
2022-10-24T10:19:35.950Z,100404.98
2022-10-24T10:24:46.258Z,100407.05
2022-10-24T10:29:54.163Z,100407.53
2022-10-24T10:35:02.620Z,100399.54
2022-10-24T10:40:16.973Z,100403.52
2022-10-24T10:45:34.691Z,100399.63
2022-10-24T10:50:52.236Z,100404.41
2022-10-24T10:56:10.739Z,100405.66
2022-10-24T11:01:24.866Z,100406.93
2022-10-24T11:06:45.709Z,100410.55
2022-10-24T11:12:06.237Z,100396.36
2022-10-24T11:17:17.934Z,100390.93
2022-10-24T11:22:29.681Z,100378.76
2022-10-24T11:27:38.099Z,100380.53
2022-10-24T11:32:52.275Z,100400.80
2022-10-24T11:38:21.736Z,100394.66
2022-10-24T11:43:38.602Z,100393.30
2022-10-24T11:48:59.422Z,100390.09
2022-10-24T11:54:07.958Z,100375.00
2022-10-24T11:59:25.732Z,100377.55
2022-10-24T12:05:07.439Z,100372.69
2022-10-24T12:10:47.641Z,100373.20
2022-10-24T12:15:57.073Z,100361.48
2022-10-24T12:21:05.577Z,100363.81
2022-10-24T12:26:18.528Z,100366.06
2022-10-24T12:31:33.169Z,100366.91
2022-10-24T12:37:09.142Z,100366.78
2022-10-24T12:42:26.724Z,100360.88
2022-10-24T12:47:47.091Z,100368.39
2022-10-24T12:52:55.537Z,100356.02
2022-10-24T12:58:01.831Z,100346.70
2022-10-24T13:03:44.119Z,100336.36
2022-10-24T13:08:58.694Z,100331.30
2022-10-24T13:14:23.945Z,100321.87
2022-10-24T13:19:31.306Z,100329.55
2022-10-24T13:24:40.587Z,100328.68
2022-10-24T13:29:49.151Z,100342.27
2022-10-24T13:34:56.716Z,100337.98
2022-10-24T13:40:21.912Z,100347.62
2022-10-24T13:45:47.141Z,100349.48
2022-10-24T13:51:10.770Z,100349.60
2022-10-24T13:56:17.751Z,100343.10
2022-10-24T14:01:31.630Z,100348.89
2022-10-24T14:06:37.697Z,100345.98
2022-10-24T14:11:49.325Z,100343.75
2022-10-24T14:17:28.969Z,100342.20
2022-10-24T14:22:40.557Z,100343.72
2022-10-24T14:27:46.849Z,100339.44
2022-10-24T14:33:07.399Z,100340.92
2022-10-24T14:38:15.826Z,100347.48
2022-10-24T14:43:24.259Z,100347.48
2022-10-24T14:48:30.755Z,100351.84
2022-10-24T14:53:38.087Z,100352.31
2022-10-24T14:58:43.807Z,100342.27
2022-10-24T15:03:58.169Z,100345.27
2022-10-24T15:09:13.075Z,100346.27
2022-10-24T15:14:47.162Z,100344.53
2022-10-24T15:19:55.600Z,100345.69
2022-10-24T15:25:04.154Z,100351.54
2022-10-24T15:30:23.283Z,100345.52
2022-10-24T15:35:29.864Z,100351.41
2022-10-24T15:40:36.366Z,100361.15
2022-10-24T15:45:42.610Z,100360.51
2022-10-24T15:50:48.475Z,100361.95
2022-10-24T15:55:53.993Z,100369.98
2022-10-24T16:01:00.787Z,100366.32
2022-10-24T16:06:06.499Z,100361.14
2022-10-24T16:11:13.514Z,100362.24
2022-10-24T16:16:18.950Z,100369.59
2022-10-24T16:21:24.987Z,100376.40
2022-10-24T16:26:30.370Z,100377.81
2022-10-24T16:31:36.284Z,100377.55
2022-10-24T16:36:43.390Z,100381.72
2022-10-24T16:41:48.881Z,100377.53
2022-10-24T16:46:54.977Z,100379.61
2022-10-24T16:52:00.552Z,100395.19
2022-10-24T16:57:06.512Z,100392.55
2022-10-24T17:02:14.388Z,100393.77
2022-10-24T17:07:20.002Z,100408.06
2022-10-24T17:12:27.313Z,100408.31
2022-10-24T17:17:34.017Z,100407.03
2022-10-24T17:22:41.581Z,100410.80
2022-10-24T17:27:47.574Z,100414.31
2022-10-24T17:32:54.064Z,100409.69
2022-10-24T17:38:19.296Z,100415.52
2022-10-24T17:43:27.419Z,100417.66
2022-10-24T17:48:32.933Z,100422.95
2022-10-24T17:53:38.549Z,100421.73
2022-10-24T17:58:44.401Z,100422.15
2022-10-24T18:03:49.986Z,100414.45
2022-10-24T18:08:56.585Z,100415.95
2022-10-24T18:14:02.055Z,100420.81
2022-10-24T18:19:08.215Z,100427.48
2022-10-24T18:24:14.787Z,100431.46
2022-10-24T18:29:20.244Z,100424.34
2022-10-24T18:34:25.845Z,100426.97
2022-10-24T18:39:31.381Z,100426.83
2022-10-24T18:44:37.915Z,100431.52
2022-10-24T18:49:44.732Z,100436.20
2022-10-24T18:54:57.740Z,100438.19
2022-10-24T19:00:03.972Z,100435.91
2022-10-24T19:05:19.130Z,100427.70
2022-10-24T19:10:29.008Z,100433.38
2022-10-24T19:15:35.463Z,100436.98
2022-10-24T19:20:42.459Z,100433.84
2022-10-24T19:25:48.090Z,100438.88
2022-10-24T19:30:54.097Z,100441.72
2022-10-24T19:36:01.040Z,100443.01
2022-10-24T19:41:09.020Z,100442.20
2022-10-24T19:46:19.853Z,100437.06
2022-10-24T19:51:23.235Z,100437.83
2022-10-24T19:56:30.503Z,100433.26
2022-10-24T20:01:37.708Z,100440.50
2022-10-24T20:06:43.250Z,100442.84
2022-10-24T20:11:48.776Z,100438.20
2022-10-24T20:16:54.310Z,100452.56
2022-10-24T20:22:02.335Z,100452.92
2022-10-24T20:32:12.792Z,100458.59
2022-10-24T20:37:18.248Z,100455.70
2022-10-24T20:42:23.644Z,100461.98
2022-10-24T20:47:30.162Z,100465.74
2022-10-24T20:52:36.089Z,100476.61
2022-10-24T20:57:41.620Z,100469.99
2022-10-24T21:02:47.690Z,100470.72
2022-10-24T21:07:53.460Z,100471.97
2022-10-24T21:12:59.068Z,100475.52
2022-10-24T21:18:05.473Z,100478.25
2022-10-24T21:23:10.992Z,100478.94
2022-10-24T21:28:16.463Z,100482.65
2022-10-24T21:33:21.861Z,100488.80
2022-10-24T21:38:27.605Z,100506.11
2022-10-24T21:43:35.388Z,100509.44
2022-10-24T21:48:42.196Z,100514.89
2022-10-24T21:53:50.551Z,100523.23
2022-10-24T21:59:00.427Z,100526.28
2022-10-24T22:04:07.103Z,100531.08
2022-10-24T22:09:18.364Z,100525.32
2022-10-24T22:14:23.955Z,100521.52
2022-10-24T22:19:29.690Z,100520.95
2022-10-24T22:24:35.094Z,100533.72
2022-10-24T22:29:40.800Z,100545.38
2022-10-24T22:34:46.709Z,100535.86
2022-10-24T22:39:52.793Z,100542.98
2022-10-24T22:44:58.996Z,100533.42
2022-10-24T22:50:22.312Z,100535.63
2022-10-24T22:55:37.084Z,100532.44
2022-10-24T23:00:43.000Z,100529.27
2022-10-24T23:06:09.875Z,100530.24
2022-10-24T23:11:15.971Z,100530.61
2022-10-24T23:16:31.001Z,100539.80
2022-10-24T23:21:39.449Z,100550.02
2022-10-24T23:26:53.889Z,100554.19
2022-10-24T23:32:00.312Z,100549.04
2022-10-24T23:37:06.906Z,100554.31
2022-10-24T23:42:13.192Z,100554.06
2022-10-24T23:53:06.703Z,100562.06
2022-10-24T23:58:14.881Z,100566.10
